Time;durP1;ratioP1;P1;durP2;ratioP2;P2;SDS_P1;SDS_P2;PMS_P1;PMS_P2;Temp;Humidity;BMP_temperature;BMP_pressure;BME280_temperature;BME280_humidity;BME280_pressure;Samples;Min_cycle;Max_cycle;Signal;HPM_P1;HPM_P2
2021/01/08 00:00:55;;;;;;;26.67;17.97;;;;;;;;;;5052902;28;20460;-94
2021/01/08 00:03:21;;;;;;;13.70;7.80;;;;;;;;;;5053155;28;20508;-94
2021/01/08 00:05:50;;;;;;;10.77;7.20;;;0.80;99.90;;;;;;5053329;28;20462;-93
2021/01/08 00:08:17;;;;;;;12.70;7.90;;;;;;;;;;5055111;28;20451;-93
2021/01/08 00:10:44;;;;;;;11.97;7.00;;;;;;;;;;5053000;28;20465;-92
2021/01/08 00:13:10;;;;;;;12.73;7.90;;;;;;;;;;5055403;28;20459;-94
2021/01/08 00:15:37;;;;;;;8.80;6.73;;;;;;;;;;5055469;28;20461;-94
2021/01/08 00:18:03;;;;;;;11.27;7.23;;;;;;;;;;5053246;28;20489;-93
2021/01/08 00:20:30;;;;;;;15.53;7.73;;;0.10;99.90;;;;;;5052550;28;20458;-92
2021/01/08 00:22:57;;;;;;;11.23;7.87;;;0.20;99.90;;;;;;5049976;28;20456;-93
2021/01/08 00:25:24;;;;;;;8.63;6.60;;;;;;;;;;5058751;28;20490;-93
2021/01/08 00:27:51;;;;;;;10.63;7.23;;;;;;;;;;5074683;28;20438;-92
2021/01/08 00:30:17;;;;;;;9.87;6.83;;;0.20;99.90;;;;;;5074046;28;20448;-93
2021/01/08 00:32:45;;;;;;;13.80;7.73;;;0.20;99.90;;;;;;5070023;28;20499;-93
2021/01/08 00:35:12;;;;;;;13.20;6.87;;;;;;;;;;5071929;28;20436;-93
2021/01/08 00:37:38;;;;;;;12.63;7.03;;;;;;;;;;5074715;28;20545;-93
2021/01/08 00:40:08;;;;;;;9.80;5.97;;;0.10;99.90;;;;;;5092790;28;20552;-92
2021/01/08 00:42:35;;;;;;;8.37;5.37;;;;;;;;;;5093938;28;20966;-93
2021/01/08 00:45:01;;;;;;;7.33;5.27;;;;;;;;;;5099107;28;20448;-93
2021/01/08 00:47:28;;;;;;;9.17;6.10;;;;;;;;;;5099211;28;20421;-93
2021/01/08 00:49:55;;;;;;;8.20;5.03;;;;;;;;;;5098406;28;20452;-93
2021/01/08 00:52:21;;;;;;;7.80;5.00;;;;;;;;;;5095966;28;20472;-91
2021/01/08 00:54:50;;;;;;;9.40;5.90;;;;;;;;;;5098899;28;20438;-92
2021/01/08 00:57:17;;;;;;;7.40;5.33;;;0.40;99.90;;;;;;5095421;28;20880;-94
2021/01/08 00:59:44;;;;;;;8.67;5.80;;;;;;;;;;5092054;28;20509;-92
2021/01/08 01:02:10;;;;;;;7.40;5.60;;;;;;;;;;5094671;28;20449;-94
2021/01/08 01:04:37;;;;;;;9.80;6.20;;;0.40;99.90;;;;;;5094457;28;20809;-93
2021/01/08 01:07:04;;;;;;;7.93;5.57;;;;;;;;;;5098479;28;20466;-94
2021/01/08 01:09:30;;;;;;;5.60;4.13;;;;;;;;;;5093892;28;20453;-93
2021/01/08 01:11:57;;;;;;;8.33;5.27;;;;;;;;;;5095462;28;20433;-91
2021/01/08 01:14:25;;;;;;;9.27;6.03;;;0.40;99.90;;;;;;5098552;28;21017;-93
2021/01/08 01:16:51;;;;;;;9.37;5.97;;;;;;;;;;5091499;28;20483;-94
2021/01/08 01:19:19;;;;;;;7.10;5.50;;;;;;;;;;5098158;28;20443;-95
2021/01/08 01:21:45;;;;;;;8.17;5.37;;;;;;;;;;5098564;28;20957;-94
2021/01/08 01:24:12;;;;;;;8.27;5.30;;;;;;;;;;5100518;28;20476;-91
2021/01/08 01:26:39;;;;;;;7.83;5.10;;;;;;;;;;5115700;28;20473;-93
2021/01/08 01:29:05;;;;;;;7.13;4.90;;;;;;;;;;5102404;28;20430;-94
2021/01/08 01:31:33;;;;;;;9.30;6.07;;;0.30;99.90;;;;;;5098042;28;20438;-94
2021/01/08 01:33:59;;;;;;;6.97;4.50;;;;;;;;;;5093591;28;21275;-91
2021/01/08 01:36:26;;;;;;;9.17;5.63;;;0.20;99.90;;;;;;5110784;28;20477;-92
2021/01/08 01:38:52;;;;;;;8.10;5.40;;;0.10;99.90;;;;;;5114025;28;20434;-92
2021/01/08 01:41:19;;;;;;;8.10;5.50;;;;;;;;;;5098497;28;20472;-93
2021/01/08 01:43:45;;;;;;;8.20;5.40;;;;;;;;;;5097827;28;20442;-94
2021/01/08 01:46:19;;;;;;;8.60;5.37;;;-0.10;99.90;;;;;;5097685;28;20937;-94
2021/01/08 01:48:47;;;;;;;9.20;5.43;;;-0.20;99.90;;;;;;5097265;28;20460;-92
2021/01/08 01:51:14;;;;;;;11.53;5.47;;;;;;;;;;5097428;28;20452;-94
2021/01/08 01:53:40;;;;;;;6.43;4.20;;;;;;;;;;5094543;28;20435;-92
2021/01/08 01:56:08;;;;;;;9.07;4.53;;;;;;;;;;5098099;28;20517;-94
2021/01/08 01:58:35;;;;;;;7.43;5.30;;;;;;;;;;5097460;28;20489;-93
2021/01/08 02:01:01;;;;;;;7.87;5.10;;;;;;;;;;5095818;28;20426;-94
2021/01/08 02:03:33;;;;;;;6.67;5.10;;;-0.40;99.90;;;;;;5093749;28;20467;-93
2021/01/08 02:06:06;;;;;;;8.67;6.07;;;-0.40;99.90;;;;;;5098208;28;20445;-93
2021/01/08 02:08:33;;;;;;;8.57;5.80;;;;;;;;;;5098810;28;20425;-93
2021/01/08 02:11:05;;;;;;;8.47;5.80;;;-0.40;99.90;;;;;;5098179;28;20429;-94
2021/01/08 02:13:42;;;;;;;7.07;5.73;;;-0.50;99.90;;;;;;5098658;28;20445;-94
2021/01/08 02:16:10;;;;;;;9.27;6.03;;;-0.50;99.90;;;;;;5094215;28;20448;-92
2021/01/08 02:18:38;;;;;;;8.63;6.07;;;-0.50;99.90;;;;;;5092360;28;20473;-93
2021/01/08 02:21:18;;;;;;;8.80;6.00;;;-0.60;99.90;;;;;;5096891;28;20449;-93
2021/01/08 02:23:51;;;;;;;8.40;5.93;;;-0.60;99.90;;;;;;5096984;28;20522;-92
2021/01/08 02:26:20;;;;;;;11.07;6.53;;;-0.80;99.90;;;;;;5097414;28;20457;-92
2021/01/08 02:28:47;;;;;;;8.60;6.23;;;-0.50;99.90;;;;;;5097652;28;20449;-94
2021/01/08 02:31:18;;;;;;;9.87;6.10;;;-0.70;99.90;;;;;;5094570;28;20450;-91
2021/01/08 02:33:45;;;;;;;10.30;5.33;;;;;;;;;;5094771;28;20450;-94
2021/01/08 02:36:12;;;;;;;8.20;5.30;;;-0.70;99.90;;;;;;5093395;28;20455;-92
2021/01/08 02:38:39;;;;;;;7.83;5.47;;;-0.70;99.90;;;;;;5091394;28;20489;-93
2021/01/08 02:41:07;;;;;;;8.40;5.30;;;-0.70;99.90;;;;;;5091203;28;20465;-93
2021/01/08 02:43:34;;;;;;;6.90;4.20;;;-0.60;99.90;;;;;;5092394;28;20454;-92
2021/01/08 02:46:02;;;;;;;6.93;5.43;;;;;;;;;;5097262;28;20989;-92
2021/01/08 02:48:29;;;;;;;8.23;4.57;;;-0.60;99.90;;;;;;5092578;28;20475;-94
2021/01/08 02:50:56;;;;;;;4.30;2.93;;;;;;;;;;5091785;28;20452;-92
2021/01/08 02:53:25;;;;;;;7.10;5.47;;;-0.40;99.90;;;;;;5109799;28;20479;-92
2021/01/08 02:55:58;;;;;;;7.80;5.80;;;-0.30;99.90;;;;;;5112584;28;20848;-94
2021/01/08 02:58:25;;;;;;;6.10;4.23;;;;;;;;;;5096803;28;20479;-92
2021/01/08 03:00:54;;;;;;;6.47;4.40;;;0.40;99.90;;;;;;5096496;28;20443;-92
2021/01/08 03:03:21;;;;;;;9.70;5.40;;;-0.20;99.90;;;;;;5095586;28;20916;-92
2021/01/08 03:05:48;;;;;;;9.00;5.70;;;-0.10;99.90;;;;;;5093045;28;20453;-94
2021/01/08 03:08:15;;;;;;;8.40;5.40;;;;;;;;;;5096736;28;20458;-92
2021/01/08 03:10:42;;;;;;;9.57;5.03;;;;;;;;;;5096623;28;20441;-92
2021/01/08 03:13:10;;;;;;;9.37;4.40;;;-0.10;99.90;;;;;;5098679;28;20440;-92
2021/01/08 03:15:36;;;;;;;6.87;4.70;;;;;;;;;;5097870;28;20461;-93
2021/01/08 03:18:04;;;;;;;7.43;5.10;;;-0.10;99.90;;;;;;5096731;28;20492;-94
2021/01/08 03:20:30;;;;;;;7.57;4.47;;;;;;;;;;5091357;28;20454;-94
2021/01/08 03:22:57;;;;;;;5.90;3.90;;;;;;;;;;5091581;28;20483;-94
2021/01/08 03:25:24;;;;;;;7.43;4.93;;;;;;;;;;5091427;28;20481;-93
2021/01/08 03:27:50;;;;;;;2.67;1.93;;;;;;;;;;5091490;28;20448;-92
2021/01/08 03:30:18;;;;;;;8.40;5.60;;;-0.10;99.90;;;;;;5095820;28;20498;-92
2021/01/08 03:32:44;;;;;;;7.13;4.30;;;;;;;;;;5089434;28;20432;-92
2021/01/08 03:35:12;;;;;;;7.27;5.30;;;-0.10;99.90;;;;;;5095108;28;20491;-94
2021/01/08 03:37:39;;;;;;;7.00;4.90;;;;;;;;;;5094484;28;20971;-94
2021/01/08 03:40:07;;;;;;;6.13;3.70;;;0.10;99.90;;;;;;5096238;28;20944;-94
2021/01/08 03:42:34;;;;;;;9.40;6.37;;;;;;;;;;5087792;28;20457;-94
2021/01/08 03:45:01;;;;;;;9.37;6.33;;;-0.10;99.90;;;;;;5092083;28;20456;-93
2021/01/08 03:47:28;;;;;;;13.13;5.77;;;;;;;;;;5096586;28;20936;-93
2021/01/08 03:49:54;;;;;;;7.20;5.33;;;;;;;;;;5095871;28;20776;-93
2021/01/08 03:52:22;;;;;;;7.57;5.70;;;-0.10;99.90;;;;;;5104190;28;20452;-91
2021/01/08 03:54:49;;;;;;;5.47;4.27;;;;;;;;;;5113665;28;20448;-93
2021/01/08 03:57:15;;;;;;;7.70;5.20;;;;;;;;;;5096290;28;20486;-93
2021/01/08 03:59:42;;;;;;;7.83;5.00;;;;;;;;;;5094573;28;20449;-93
2021/01/08 04:02:09;;;;;;;8.03;5.07;;;;;;;;;;5096215;28;20437;-93
2021/01/08 04:04:35;;;;;;;7.67;4.73;;;;;;;;;;5096278;28;21034;-93
2021/01/08 04:07:02;;;;;;;8.50;5.13;;;;;;;;;;5096005;28;20796;-93
2021/01/08 04:09:29;;;;;;;9.33;5.53;;;-2.00;99.90;;;;;;5096464;28;20799;-92
2021/01/08 04:11:56;;;;;;;7.37;5.07;;;;;;;;;;5091418;28;20500;-93
2021/01/08 04:14:22;;;;;;;4.97;3.00;;;;;;;;;;5100792;28;20455;-93
2021/01/08 04:16:49;;;;;;;7.00;4.80;;;;;;;;;;5103214;28;20986;-93
2021/01/08 04:19:16;;;;;;;6.30;3.67;;;;;;;;;;5102968;28;20924;-94
2021/01/08 04:21:45;;;;;;;9.13;5.70;;;;;;;;;;5120588;28;20455;-93
2021/01/08 04:24:12;;;;;;;6.10;4.23;;;;;;;;;;5081778;28;20478;-93
2021/01/08 04:26:41;;;;;;;8.80;6.13;;;-0.20;99.90;;;;;;5108996;28;20464;-93
2021/01/08 04:29:08;;;;;;;11.93;6.33;;;-0.20;99.90;;;;;;5108458;28;20449;-92
2021/01/08 04:31:35;;;;;;;8.83;5.70;;;;;;;;;;5108840;28;20465;-93
2021/01/08 04:34:01;;;;;;;7.47;3.90;;;;;;;;;;5108493;28;20936;-94
2021/01/08 04:36:30;;;;;;;7.60;4.80;;;;;;;;;;5102571;28;20439;-93
2021/01/08 04:38:58;;;;;;;10.40;5.00;;;-0.20;99.90;;;;;;5102436;28;20432;-94
2021/01/08 04:41:24;;;;;;;4.90;3.20;;;;;;;;;;5096988;28;20446;-94
2021/01/08 04:43:52;;;;;;;9.30;5.63;;;-0.20;99.90;;;;;;5102053;28;20442;-94
2021/01/08 04:46:22;;;;;;;9.60;5.77;;;-0.20;99.90;;;;;;5101885;28;20434;-92
2021/01/08 04:48:48;;;;;;;8.83;5.77;;;;;;;;;;5097617;28;20512;-93
2021/01/08 04:51:17;;;;;;;8.30;5.00;;;-0.20;99.90;;;;;;5097955;28;20458;-93
2021/01/08 04:53:44;;;;;;;7.60;4.37;;;;;;;;;;5102375;28;20458;-93
2021/01/08 04:56:14;;;;;;;5.33;3.53;;;-0.20;99.90;;;;;;5102845;28;20479;-94
2021/01/08 04:58:41;;;;;;;8.03;4.47;;;;;;;;;;5102651;28;20519;-93
2021/01/08 05:01:09;;;;;;;4.93;3.47;;;0.10;99.90;;;;;;5097831;28;20448;-93
2021/01/08 05:03:36;;;;;;;7.27;4.60;;;;;;;;;;5102663;28;20916;-93
2021/01/08 05:06:02;;;;;;;6.00;4.30;;;;;;;;;;5101510;28;20456;-93
2021/01/08 05:08:30;;;;;;;6.57;3.47;;;;;;;;;;5102085;28;20436;-94
2021/01/08 05:10:57;;;;;;;7.87;5.03;;;;;;;;;;5102741;28;20453;-94
2021/01/08 05:13:33;;;;;;;7.53;4.77;;;-1.00;99.90;;;;;;5100292;28;20426;-93
2021/01/08 05:16:02;;;;;;;8.03;4.97;;;-0.30;99.90;;;;;;5102060;28;20429;-93
2021/01/08 05:18:32;;;;;;;6.90;4.80;;;2.20;99.90;;;;;;5098925;28;20497;-94
2021/01/08 05:20:59;;;;;;;8.17;4.67;;;-0.30;99.90;;;;;;5094701;28;20439;-94
2021/01/08 05:23:28;;;;;;;6.13;4.10;;;-0.30;99.90;;;;;;5102131;28;20784;-94
2021/01/08 05:25:55;;;;;;;9.17;4.47;;;;;;;;;;5093750;28;20440;-94
2021/01/08 05:28:21;;;;;;;5.70;2.87;;;;;;;;;;5098894;28;20966;-93
2021/01/08 05:30:48;;;;;;;7.50;4.30;;;;;;;;;;5095257;28;20459;-92
2021/01/08 05:33:16;;;;;;;7.53;4.70;;;-0.40;99.90;;;;;;5098885;28;20450;-94
2021/01/08 05:35:43;;;;;;;4.57;3.03;;;-0.40;99.90;;;;;;5093293;28;20856;-91
2021/01/08 05:38:14;;;;;;;6.13;3.50;;;-0.40;99.90;;;;;;5095808;28;20492;-92
2021/01/08 05:40:41;;;;;;;6.43;4.17;;;-0.40;99.90;;;;;;5098566;28;20484;-93
2021/01/08 05:43:09;;;;;;;1.43;1.43;;;-0.30;99.90;;;;;;5095275;28;20436;-94
2021/01/08 05:45:37;;;;;;;6.47;3.60;;;-0.30;99.90;;;;;;5094507;28;20458;-93
2021/01/08 05:48:05;;;;;;;1.10;1.00;;;-0.30;99.90;;;;;;5107492;28;20513;-91
2021/01/08 05:50:33;;;;;;;6.80;4.20;;;-0.30;99.90;;;;;;5109024;28;20468;-94
2021/01/08 05:53:05;;;;;;;3.90;2.57;;;-0.10;99.90;;;;;;5099347;28;20448;-92
2021/01/08 05:55:35;;;;;;;7.03;4.33;;;-0.30;99.90;;;;;;5099916;28;20461;-92
2021/01/08 05:58:16;;;;;;;6.90;3.93;;;-0.30;99.90;;;;;;5098898;28;20485;-95
2021/01/08 06:00:43;;;;;;;8.90;6.17;;;;;;;;;;5092450;28;20848;-94
2021/01/08 06:03:11;;;;;;;8.03;4.43;;;-0.30;99.90;;;;;;5098073;28;20440;-93
2021/01/08 06:05:39;;;;;;;4.63;3.30;;;-0.30;99.90;;;;;;5094196;28;20433;-94
2021/01/08 06:08:09;;;;;;;3.53;3.17;;;-0.30;99.90;;;;;;5111652;28;20442;-92
2021/01/08 06:10:38;;;;;;;7.23;4.10;;;-0.30;99.90;;;;;;5111629;28;20819;-93
2021/01/08 06:13:06;;;;;;;4.90;3.60;;;-0.30;99.90;;;;;;5097707;28;20913;-93
2021/01/08 06:15:35;;;;;;;6.10;4.17;;;-0.30;99.90;;;;;;5092650;28;20461;-94
2021/01/08 06:18:02;;;;;;;5.43;4.07;;;;;;;;;;5094006;28;20480;-93
2021/01/08 06:20:29;;;;;;;21.87;15.97;;;-0.30;99.90;;;;;;5097050;28;20504;-92
2021/01/08 06:22:56;;;;;;;8.13;6.20;;;;;;;;;;5097411;28;20426;-93
2021/01/08 06:25:26;;;;;;;8.47;4.53;;;-0.10;99.90;;;;;;5097489;28;20472;-92
2021/01/08 06:27:55;;;;;;;10.83;7.63;;;-0.30;99.90;;;;;;5092503;28;20449;-92
2021/01/08 06:30:26;;;;;;;9.00;4.00;;;-0.20;99.90;;;;;;5097515;28;20854;-94
2021/01/08 06:33:04;;;;;;;5.67;4.10;;;-0.30;99.90;;;;;;5097256;28;20466;-93
2021/01/08 06:35:32;;;;;;;6.93;3.80;;;-0.30;99.90;;;;;;5086969;28;20451;-93
2021/01/08 06:38:01;;;;;;;9.23;5.77;;;-0.30;99.90;;;;;;5097418;28;20486;-93
2021/01/08 06:40:41;;;;;;;6.30;4.33;;;-0.30;99.90;;;;;;5094706;28;20808;-93
2021/01/08 06:43:18;;;;;;;7.70;5.47;;;-0.30;99.90;;;;;;5095544;28;20456;-94
2021/01/08 06:45:52;;;;;;;2.53;1.90;;;-0.20;99.90;;;;;;5098118;28;20799;-94
2021/01/08 06:48:25;;;;;;;7.03;4.50;;;-0.20;99.90;;;;;;5097887;28;20440;-92
2021/01/08 06:50:54;;;;;;;3.40;2.17;;;-0.20;99.90;;;;;;5095594;28;20455;-93
2021/01/08 06:53:25;;;;;;;6.50;4.30;;;-0.20;99.90;;;;;;5096312;28;20480;-91
2021/01/08 06:55:54;;;;;;;6.97;4.60;;;-0.20;99.90;;;;;;5096465;28;20538;-93
2021/01/08 06:58:21;;;;;;;10.63;8.60;;;;;;;;;;5089950;28;20554;-91
2021/01/08 07:00:52;;;;;;;4.40;2.40;;;-0.20;99.90;;;;;;5096056;28;20477;-90
2021/01/08 07:03:21;;;;;;;16.57;10.97;;;-0.20;99.90;;;;;;5092723;28;20790;-90
2021/01/08 07:05:49;;;;;;;12.77;8.40;;;-0.40;99.90;;;;;;5095324;28;20460;-92
2021/01/08 07:08:18;;;;;;;13.30;8.83;;;-0.20;99.90;;;;;;5092425;28;20435;-93
2021/01/08 07:10:52;;;;;;;16.90;9.80;;;-0.20;99.90;;;;;;5088070;28;20932;-93
2021/01/08 07:13:29;;;;;;;18.63;13.33;;;-0.20;99.90;;;;;;5088506;28;20454;-92
2021/01/08 07:15:56;;;;;;;37.23;20.33;;;;;;;;;;5111129;28;20437;-90
2021/01/08 07:18:26;;;;;;;18.20;12.47;;;-0.20;99.90;;;;;;5107185;28;20470;-92
2021/01/08 07:20:53;;;;;;;12.03;8.20;;;-0.20;99.90;;;;;;5097724;28;20468;-92
2021/01/08 07:23:26;;;;;;;8.37;4.67;;;-0.20;99.90;;;;;;5096622;28;20443;-90
2021/01/08 07:25:55;;;;;;;10.50;5.90;;;-0.30;99.90;;;;;;5094471;28;20450;-92
2021/01/08 07:28:25;;;;;;;20.13;12.93;;;-0.10;99.90;;;;;;5095535;28;20436;-92
2021/01/08 07:31:08;;;;;;;44.37;24.57;;;-0.10;99.90;;;;;;5095207;28;20432;-92
2021/01/08 07:33:34;;;;;;;28.00;14.20;;;;;;;;;;5096325;28;20453;-94
2021/01/08 07:36:20;;;;;;;7.50;5.83;;;-0.10;99.90;;;;;;5095578;28;20445;-91
2021/01/08 07:38:46;;;;;;;10.73;6.80;;;-0.10;99.90;;;;;;5094550;28;20493;-92
2021/01/08 07:41:29;;;;;;;7.83;4.73;;;-0.10;99.90;;;;;;5094757;28;20438;-93
2021/01/08 07:43:57;;;;;;;15.17;9.20;;;-0.10;99.90;;;;;;5096672;28;20442;-94
2021/01/08 07:46:27;;;;;;;10.53;6.30;;;0.00;99.90;;;;;;5095584;28;20426;-93
2021/01/08 07:48:57;;;;;;;8.13;5.40;;;-0.10;99.90;;;;;;5095058;28;20504;-92
2021/01/08 07:51:24;;;;;;;8.23;4.50;;;;;;;;;;5098772;28;20968;-92
2021/01/08 07:53:53;;;;;;;11.53;6.80;;;-0.10;99.90;;;;;;5100263;28;20471;-93
2021/01/08 07:56:22;;;;;;;8.80;4.40;;;-0.10;99.90;;;;;;5104760;28;20457;-88
2021/01/08 07:58:58;;;;;;;16.93;9.93;;;0.00;99.90;;;;;;5100772;28;20497;-90
2021/01/08 08:01:27;;;;;;;19.00;11.27;;;;;;;;;;5093031;28;20444;-91
2021/01/08 08:03:58;;;;;;;24.33;13.50;;;0.00;99.90;;;;;;5095926;28;20460;-91
2021/01/08 08:06:25;;;;;;;3.80;2.90;;;0.00;99.90;;;;;;5097484;28;20925;-89
2021/01/08 08:08:53;;;;;;;12.57;8.70;;;0.00;99.90;;;;;;5097792;28;20498;-92
2021/01/08 08:11:25;;;;;;;7.13;4.37;;;0.00;99.90;;;;;;5094447;28;20448;-92
2021/01/08 08:13:52;;;;;;;11.67;7.93;;;0.00;99.90;;;;;;5098565;28;20486;-93
2021/01/08 08:16:29;;;;;;;10.00;5.60;;;-0.40;99.90;;;;;;5111478;22;20448;-90
2021/01/08 08:18:55;;;;;;;11.00;6.53;;;0.00;99.90;;;;;;5102674;28;20496;-92
2021/01/08 08:21:21;;;;;;;6.67;3.80;;;0.00;99.90;;;;;;5102522;28;20823;-90
2021/01/08 08:23:55;;;;;;;9.63;5.67;;;0.10;99.90;;;;;;5115484;28;20833;-90
2021/01/08 08:26:24;;;;;;;9.10;5.77;;;0.00;99.90;;;;;;5100878;28;20441;-93
2021/01/08 08:29:02;;;;;;;13.50;6.33;;;0.40;99.90;;;;;;5101096;28;20452;-92
2021/01/08 08:31:30;;;;;;;4.90;1.90;;;0.10;99.90;;;;;;5096626;28;20440;-92
2021/01/08 08:33:57;;;;;;;8.10;4.50;;;0.10;99.90;;;;;;5098689;28;20410;-92
2021/01/08 08:36:26;;;;;;;8.63;5.60;;;0.10;99.90;;;;;;5102632;28;20443;-91
2021/01/08 08:39:01;;;;;;;5.00;3.83;;;0.20;99.90;;;;;;5106955;28;20481;-93
2021/01/08 08:41:29;;;;;;;4.70;2.80;;;0.30;99.90;;;;;;5107605;28;20459;-88
2021/01/08 08:44:01;;;;;;;5.90;3.93;;;0.30;99.90;;;;;;5110988;28;20452;-92
2021/01/08 08:46:43;;;;;;;8.03;4.67;;;0.30;99.90;;;;;;5103040;28;20468;-92
2021/01/08 08:49:10;;;;;;;8.13;5.23;;;0.40;99.90;;;;;;5102411;28;20943;-90
2021/01/08 08:51:40;;;;;;;7.47;3.23;;;0.40;99.90;;;;;;5104011;28;20451;-90
2021/01/08 08:54:07;;;;;;;6.47;4.90;;;0.30;99.90;;;;;;5101923;28;20812;-91
2021/01/08 08:56:35;;;;;;;4.90;3.77;;;0.30;99.90;;;;;;5101669;28;20446;-89
2021/01/08 08:59:01;;;;;;;12.97;6.10;;;0.30;99.90;;;;;;5097638;28;20499;-90
2021/01/08 09:01:38;;;;;;;6.40;4.00;;;0.30;99.90;;;;;;5099939;28;20434;-91
2021/01/08 09:04:05;;;;;;;7.53;4.33;;;1.70;99.90;;;;;;5101935;28;20448;-92
2021/01/08 09:06:40;;;;;;;5.90;3.30;;;0.40;99.90;;;;;;5110160;28;20479;-90
2021/01/08 09:09:18;;;;;;;1.90;1.50;;;0.50;99.90;;;;;;5044403;28;20452;-93
2021/01/08 09:12:14;;;;;;;7.13;5.77;;;0.60;99.90;;;;;;5042251;28;20440;-92
2021/01/08 09:14:44;;;;;;;6.60;4.80;;;0.70;99.90;;;;;;5051872;28;20517;-90
2021/01/08 09:17:16;;;;;;;4.77;4.00;;;0.70;99.90;;;;;;5048206;28;20517;-93
2021/01/08 09:19:51;;;;;;;2.30;1.37;;;0.90;99.90;;;;;;5043085;28;20511;-90
2021/01/08 09:22:18;;;;;;;4.30;2.53;;;;;;;;;;5033052;28;20987;-90
2021/01/08 09:24:47;;;;;;;3.17;2.70;;;0.80;99.90;;;;;;5033282;28;20587;-90
2021/01/08 09:27:15;;;;;;;2.87;2.17;;;0.90;99.90;;;;;;5073621;28;20465;-91
2021/01/08 09:29:42;;;;;;;3.40;2.70;;;0.90;99.90;;;;;;5100059;28;20443;-91
2021/01/08 09:32:09;;;;;;;5.30;2.80;;;0.90;99.90;;;;;;5102497;28;20453;-93
2021/01/08 09:34:36;;;;;;;6.53;3.80;;;1.00;99.90;;;;;;5091663;28;20454;-90
2021/01/08 09:37:14;;;;;;;7.00;4.80;;;1.00;99.90;;;;;;5098857;28;20438;-91
2021/01/08 09:39:43;;;;;;;11.83;7.60;;;1.00;99.90;;;;;;5100857;28;20446;-92
2021/01/08 09:42:11;;;;;;;11.47;7.70;;;1.20;99.90;;;;;;5098588;28;20456;-92
2021/01/08 09:44:40;;;;;;;9.00;6.50;;;1.40;99.90;;;;;;5105153;28;20444;-91
2021/01/08 09:47:10;;;;;;;12.43;10.40;;;1.20;99.90;;;;;;5102051;28;20903;-93
2021/01/08 09:49:42;;;;;;;12.43;10.30;;;1.40;99.90;;;;;;5104945;28;20520;-92
2021/01/08 09:52:10;;;;;;;9.83;7.43;;;1.40;99.90;;;;;;5105798;28;20543;-89
2021/01/08 09:54:44;;;;;;;3.90;3.53;;;1.20;99.90;;;;;;5107014;22;20960;-91
2021/01/08 09:57:11;;;;;;;3.97;3.57;;;;;;;;;;5096976;28;20466;-92
2021/01/08 09:59:38;;;;;;;2.43;1.20;;;1.40;99.90;;;;;;5095167;28;20985;-91
2021/01/08 10:02:08;;;;;;;0.70;0.70;;;1.30;99.90;;;;;;5091720;28;20805;-90
2021/01/08 10:04:36;;;;;;;4.83;3.47;;;1.20;99.90;;;;;;5096117;28;20492;-93
2021/01/08 10:07:04;;;;;;;2.80;2.10;;;1.20;99.90;;;;;;5097057;28;20426;-92
2021/01/08 10:09:48;;;;;;;3.10;1.80;;;1.40;99.90;;;;;;5091934;28;20793;-92
2021/01/08 10:12:16;;;;;;;3.77;2.10;;;1.30;99.90;;;;;;5109777;28;20447;-92
2021/01/08 10:14:44;;;;;;;2.03;1.57;;;1.20;99.90;;;;;;5094309;28;20938;-92
2021/01/08 10:17:14;;;;;;;2.87;1.90;;;1.30;99.90;;;;;;5090464;28;20918;-91
2021/01/08 10:19:42;;;;;;;4.20;2.50;;;1.40;99.90;;;;;;5097903;28;20985;-92
2021/01/08 10:22:08;;;;;;;1.47;1.37;;;;;;;;;;5097550;28;20924;-91
2021/01/08 10:24:35;;;;;;;4.90;2.40;;;;;;;;;;5093066;28;20459;-92
2021/01/08 10:27:02;;;;;;;2.33;1.63;;;;;;;;;;5097615;28;20458;-91
2021/01/08 10:29:35;;;;;;;2.23;1.70;;;1.40;99.90;;;;;;5089490;28;20444;-91
2021/01/08 10:32:10;;;;;;;4.50;2.20;;;1.40;99.90;;;;;;5098154;28;20448;-92
2021/01/08 10:34:37;;;;;;;1.70;1.57;;;1.50;99.90;;;;;;5097104;28;20438;-91
2021/01/08 10:37:04;;;;;;;2.50;1.83;;;1.70;99.90;;;;;;5105671;28;20484;-92
2021/01/08 10:39:30;;;;;;;7.83;2.80;;;1.60;99.90;;;;;;5110985;28;20445;-91
2021/01/08 10:41:57;;;;;;;2.60;2.10;;;1.50;99.90;;;;;;5098662;28;20444;-91
2021/01/08 10:44:28;;;;;;;1.37;1.27;;;1.60;99.90;;;;;;5091292;28;20443;-91
2021/01/08 10:46:54;;;;;;;4.40;3.00;;;1.40;99.90;;;;;;5097036;28;20451;-91
2021/01/08 10:49:23;;;;;;;2.43;2.23;;;1.60;99.90;;;;;;5092997;28;20938;-91
2021/01/08 10:51:49;;;;;;;3.87;3.33;;;1.50;99.90;;;;;;5102471;28;20469;-91
2021/01/08 10:54:18;;;;;;;6.47;3.50;;;1.70;99.90;;;;;;5105278;28;20418;-93
2021/01/08 10:56:45;;;;;;;3.83;2.30;;;1.70;99.90;;;;;;5087414;28;20437;-90
2021/01/08 10:59:12;;;;;;;1.90;1.20;;;1.60;99.90;;;;;;5084916;28;20500;-91
2021/01/08 11:01:39;;;;;;;4.73;3.70;;;1.70;99.90;;;;;;5096304;28;20462;-90
2021/01/08 11:04:06;;;;;;;4.53;2.53;;;1.60;99.90;;;;;;5097969;28;20441;-91
2021/01/08 11:06:33;;;;;;;5.53;3.20;;;1.90;99.90;;;;;;5092926;28;20444;-90
2021/01/08 11:08:59;;;;;;;3.00;1.97;;;1.60;99.90;;;;;;5095305;28;20454;-88
2021/01/08 11:11:26;;;;;;;3.70;2.90;;;1.80;99.90;;;;;;5090021;28;21178;-90
2021/01/08 11:13:52;;;;;;;5.57;2.63;;;1.90;99.90;;;;;;5092451;28;20923;-91
2021/01/08 11:16:18;;;;;;;3.60;2.20;;;1.90;99.90;;;;;;5090400;28;20450;-91
2021/01/08 11:18:45;;;;;;;3.90;2.60;;;1.90;99.90;;;;;;5096324;28;20486;-90
2021/01/08 11:21:11;;;;;;;4.93;3.40;;;1.90;99.90;;;;;;5090495;28;20509;-92
2021/01/08 11:23:38;;;;;;;3.67;2.40;;;1.90;99.90;;;;;;5091387;28;20459;-90
2021/01/08 11:26:04;;;;;;;4.47;3.60;;;2.10;99.90;;;;;;5095652;28;21078;-90
2021/01/08 11:28:31;;;;;;;2.80;1.87;;;;;;;;;;5092886;28;20451;-90
2021/01/08 11:30:57;;;;;;;2.63;2.37;;;;;;;;;;5095953;28;20868;-89
2021/01/08 11:33:24;;;;;;;3.00;2.60;;;;;;;;;;5095666;28;20446;-90
2021/01/08 11:35:51;;;;;;;1.80;1.33;;;;;;;;;;5095122;28;20481;-89
2021/01/08 11:38:17;;;;;;;2.03;1.27;;;2.30;99.90;;;;;;5101476;28;20483;-87
2021/01/08 11:40:44;;;;;;;5.20;2.93;;;2.30;99.90;;;;;;5100547;28;20439;-89
2021/01/08 11:43:10;;;;;;;6.03;2.77;;;3.20;99.90;;;;;;5114923;28;20993;-90
2021/01/08 11:45:39;;;;;;;2.10;1.90;;;2.20;99.90;;;;;;5115138;28;20454;-90
2021/01/08 11:48:07;;;;;;;3.40;2.03;;;2.30;99.90;;;;;;5112168;28;20485;-91
2021/01/08 11:50:36;;;;;;;2.43;2.00;;;2.30;99.90;;;;;;5113972;28;20454;-92
2021/01/08 11:53:02;;;;;;;3.90;2.70;;;;;;;;;;5114588;28;20447;-90
2021/01/08 11:55:29;;;;;;;5.73;2.53;;;2.10;99.90;;;;;;5106257;28;20482;-89
2021/01/08 11:57:56;;;;;;;3.57;2.50;;;2.20;99.90;;;;;;5115052;28;20505;-90
2021/01/08 12:00:23;;;;;;;3.93;2.60;;;2.20;99.90;;;;;;5114808;28;20458;-91
2021/01/08 12:02:49;;;;;;;4.93;3.03;;;;;;;;;;5114612;28;20451;-91
2021/01/08 12:05:16;;;;;;;3.70;2.83;;;;;;;;;;5114246;28;20442;-91
2021/01/08 12:07:43;;;;;;;3.53;2.57;;;;;;;;;;5113724;28;20459;-90
2021/01/08 12:10:10;;;;;;;1.97;1.50;;;2.20;99.90;;;;;;5115385;28;20508;-91
2021/01/08 12:12:39;;;;;;;3.37;2.23;;;;;;;;;;5112078;28;20470;-90
2021/01/08 12:15:08;;;;;;;4.10;1.70;;;1.80;99.90;;;;;;5114705;28;20518;-90
2021/01/08 12:17:34;;;;;;;6.90;2.77;;;1.70;99.90;;;;;;5114800;28;20478;-90
2021/01/08 12:20:01;;;;;;;2.90;2.47;;;1.60;99.90;;;;;;5113668;28;20460;-90
2021/01/08 12:22:27;;;;;;;4.10;2.20;;;1.70;99.90;;;;;;5103086;28;20444;-89
2021/01/08 12:24:53;;;;;;;4.90;3.33;;;1.60;99.90;;;;;;5114702;28;20444;-92
2021/01/08 12:27:19;;;;;;;5.03;3.23;;;1.70;99.90;;;;;;5098681;28;20519;-90
2021/01/08 12:29:46;;;;;;;4.10;2.93;;;;;;;;;;5092295;28;20459;-90
2021/01/08 12:32:13;;;;;;;3.57;2.37;;;2.00;99.90;;;;;;5094117;28;20799;-90
2021/01/08 12:34:40;;;;;;;4.37;3.07;;;;;;;;;;5091808;28;20441;-89
2021/01/08 12:37:06;;;;;;;3.63;2.33;;;1.50;99.90;;;;;;5095682;28;20451;-90
2021/01/08 12:39:34;;;;;;;4.63;2.80;;;1.40;99.90;;;;;;5094870;28;20509;-91
2021/01/08 12:42:01;;;;;;;4.30;3.30;;;1.50;99.90;;;;;;5095575;28;20457;-90
2021/01/08 12:44:27;;;;;;;4.70;3.40;;;1.40;99.90;;;;;;5098635;28;20450;-90
2021/01/08 12:46:57;;;;;;;6.37;2.73;;;1.50;99.90;;;;;;5095171;28;20445;-90
2021/01/08 12:49:24;;;;;;;2.50;2.13;;;1.50;99.90;;;;;;5094314;28;20460;-92
2021/01/08 12:51:51;;;;;;;4.07;3.43;;;1.50;99.90;;;;;;5095237;28;20444;-89
2021/01/08 12:54:18;;;;;;;5.80;4.03;;;1.50;99.90;;;;;;5108917;28;20466;-92
2021/01/08 12:56:44;;;;;;;5.90;3.67;;;1.60;99.90;;;;;;5080201;28;20551;-88
2021/01/08 12:59:10;;;;;;;5.23;3.50;;;;;;;;;;5073167;28;20983;-90
2021/01/08 13:01:37;;;;;;;5.27;3.27;;;1.60;99.90;;;;;;5078023;28;20443;-88
2021/01/08 13:04:04;;;;;;;5.17;3.33;;;;;;;;;;5076977;28;20444;-90
2021/01/08 13:06:31;;;;;;;5.77;3.90;;;1.80;99.90;;;;;;5085638;28;20453;-84
2021/01/08 13:08:57;;;;;;;6.20;3.00;;;1.80;99.90;;;;;;5077136;28;20502;-87
2021/01/08 13:11:24;;;;;;;5.40;3.50;;;1.80;99.90;;;;;;5077090;28;20505;-88
2021/01/08 13:13:51;;;;;;;5.30;3.50;;;1.80;99.90;;;;;;5073628;28;20449;-86
2021/01/08 13:16:19;;;;;;;9.43;4.23;;;1.70;99.90;;;;;;5072732;28;20893;-87
2021/01/08 13:18:46;;;;;;;4.00;2.80;;;1.60;99.90;;;;;;5072511;28;20713;-89
2021/01/08 13:21:12;;;;;;;3.87;2.87;;;1.50;99.90;;;;;;5070338;28;20944;-91
2021/01/08 13:23:42;;;;;;;8.30;3.57;;;1.50;99.90;;;;;;5077276;28;20449;-89
2021/01/08 13:26:08;;;;;;;5.50;3.80;;;1.60;99.90;;;;;;5076597;28;20460;-88
2021/01/08 13:28:35;;;;;;;5.80;3.67;;;;;;;;;;5076650;28;20451;-91